Time;durP1;ratioP1;P1;durP2;ratioP2;P2;SDS_P1;SDS_P2;PMS_P1;PMS_P2;Temp;Humidity;BMP_temperature;BMP_pressure;BME280_temperature;BME280_humidity;BME280_pressure;Samples;Min_cycle;Max_cycle;Signal;HPM_P1;HPM_P2
2021/06/13 00:00:51;;;;;;;;;;;;;;;;;;;;;
2021/06/13 00:14:23;;;;;;;1.50;1.00;;;15.50;91.40;;;;;;4856361;29;20476;-85
2021/06/13 00:20:40;;;;;;;1.50;1.00;;;15.50;92.20;;;;;;4911873;29;20477;-84
2021/06/13 00:29:39;;;;;;;1.50;1.00;;;15.40;92.00;;;;;;4990266;28;20464;-84
2021/06/13 00:36:03;;;;;;;1.50;1.00;;;15.30;92.20;;;;;;5006599;28;20963;-85
2021/06/13 00:39:02;;;;;;;1.50;1.00;;;15.30;92.50;;;;;;4992256;28;20480;-84
2021/06/13 00:41:29;;;;;;;1.50;1.00;;;15.20;93.20;;;;;;5016460;28;20483;-83
2021/06/13 00:43:59;;;;;;;1.90;1.53;;;15.20;92.90;;;;;;5036218;28;20498;-84
2021/06/13 00:49:43;;;;;;;1.50;1.00;;;15.10;93.30;;;;;;5016473;28;20476;-85
2021/06/13 00:52:22;;;;;;;1.50;1.00;;;15.00;93.80;;;;;;5014876;28;20479;-84
2021/06/13 00:55:33;;;;;;;1.50;1.00;;;15.00;93.00;;;;;;5032192;28;20527;-84
2021/06/13 00:58:54;;;;;;;1.50;1.00;;;15.00;93.40;;;;;;4994013;28;20475;-85
2021/06/13 01:01:45;;;;;;;1.50;1.03;;;14.90;93.60;;;;;;4900342;28;20478;-85
2021/06/13 01:04:46;;;;;;;1.50;1.00;;;14.80;93.60;;;;;;4947140;29;20532;-84
2021/06/13 01:17:49;;;;;;;1.50;1.10;;;14.80;93.50;;;;;;4829389;29;20517;-84
2021/06/13 01:24:52;;;;;;;1.50;0.97;;;14.70;93.90;;;;;;4901785;29;20552;-83
2021/06/13 01:27:43;;;;;;;1.50;1.00;;;14.70;94.30;;;;;;4871239;29;22032;-84
2021/06/13 01:30:11;;;;;;;1.50;1.00;;;14.60;93.90;;;;;;4930489;28;20490;-83
2021/06/13 01:32:39;;;;;;;1.50;1.00;;;14.50;94.00;;;;;;4967170;28;21502;-85
2021/06/13 01:35:19;;;;;;;1.50;1.00;;;14.50;94.50;;;;;;4993862;28;20460;-84
2021/06/13 01:37:56;;;;;;;1.50;1.00;;;14.50;94.90;;;;;;5007618;28;20507;-84
2021/06/13 01:40:29;;;;;;;1.50;1.00;;;14.50;94.70;;;;;;5017669;28;20526;-83
2021/06/13 01:42:57;;;;;;;1.50;1.00;;;14.50;95.10;;;;;;5010013;28;20495;-83
2021/06/13 01:45:30;;;;;;;1.50;1.00;;;14.40;95.10;;;;;;5019031;28;20811;-83
2021/06/13 01:47:56;;;;;;;1.50;1.00;;;14.40;95.50;;;;;;4989695;28;20476;-83
2021/06/13 01:50:33;;;;;;;1.50;1.00;;;14.40;95.40;;;;;;5022165;28;20487;-85
2021/06/13 01:53:06;;;;;;;1.50;1.00;;;14.30;95.60;;;;;;4993559;28;20475;-83
2021/06/13 01:55:33;;;;;;;1.50;1.00;;;14.30;95.20;;;;;;5017525;28;20468;-84
2021/06/13 01:58:01;;;;;;;1.50;1.00;;;14.20;95.50;;;;;;5004217;28;20709;-82
2021/06/13 02:00:30;;;;;;;1.50;1.00;;;14.20;95.70;;;;;;5018472;28;20534;-84
2021/06/13 02:02:58;;;;;;;1.50;1.00;;;14.20;95.60;;;;;;5010639;28;20808;-83
2021/06/13 02:05:25;;;;;;;1.50;1.00;;;14.10;95.90;;;;;;5017235;28;20460;-83
2021/06/13 02:07:55;;;;;;;1.50;1.00;;;14.10;95.80;;;;;;5010992;28;20522;-82
2021/06/13 02:10:22;;;;;;;1.50;0.90;;;14.10;95.90;;;;;;5021986;28;21034;-84
2021/06/13 02:12:50;;;;;;;1.50;1.00;;;14.10;96.10;;;;;;4985547;28;20994;-83
2021/06/13 02:15:20;;;;;;;1.50;1.00;;;14.00;96.30;;;;;;5015461;28;20467;-81
2021/06/13 02:17:50;;;;;;;1.50;1.00;;;14.00;96.30;;;;;;4999700;28;20527;-83
2021/06/13 02:20:20;;;;;;;1.50;1.10;;;14.00;95.80;;;;;;5015954;28;20952;-82
2021/06/13 02:22:49;;;;;;;1.50;1.10;;;14.00;96.40;;;;;;5005598;28;20891;-84
2021/06/13 02:25:18;;;;;;;1.50;1.00;;;13.90;96.40;;;;;;5020231;28;20468;-85
2021/06/13 02:27:45;;;;;;;3.00;2.80;;;14.00;95.90;;;;;;5005855;28;20480;-82
2021/06/13 02:30:15;;;;;;;1.50;1.10;;;13.90;96.10;;;;;;5032367;28;20481;-84
2021/06/13 02:32:43;;;;;;;1.50;1.07;;;13.90;96.10;;;;;;5003957;28;20483;-83
2021/06/13 02:35:13;;;;;;;1.50;1.03;;;13.90;96.60;;;;;;5018576;28;20571;-85
2021/06/13 02:37:42;;;;;;;1.50;1.00;;;13.90;96.10;;;;;;5006981;28;20987;-82
2021/06/13 02:40:10;;;;;;;1.50;1.00;;;13.90;96.50;;;;;;5026213;28;20516;-82
2021/06/13 02:42:37;;;;;;;1.50;1.00;;;13.80;96.50;;;;;;5002607;28;20484;-84
2021/06/13 02:45:25;;;;;;;1.50;1.07;;;13.80;96.10;;;;;;5019661;28;20982;-83
2021/06/13 02:47:52;;;;;;;1.50;1.00;;;13.80;96.20;;;;;;5017013;28;20554;-81
2021/06/13 02:50:22;;;;;;;1.50;1.00;;;13.80;97.10;;;;;;5022902;28;20479;-84
2021/06/13 02:52:55;;;;;;;1.53;1.10;;;13.70;96.60;;;;;;5008855;28;20472;-81
2021/06/13 02:55:31;;;;;;;1.50;1.00;;;13.70;96.60;;;;;;5020572;28;20452;-82
2021/06/13 02:58:06;;;;;;;1.50;1.10;;;13.70;97.40;;;;;;4988114;28;20480;-85
2021/06/13 03:00:33;;;;;;;1.50;1.00;;;13.70;97.30;;;;;;5021676;28;20565;-83
2021/06/13 03:03:02;;;;;;;1.50;1.10;;;13.70;96.90;;;;;;4992573;28;20552;-83
2021/06/13 03:05:31;;;;;;;1.50;1.03;;;13.70;97.50;;;;;;5018446;28;20825;-81
2021/06/13 03:08:03;;;;;;;1.50;0.90;;;13.70;97.20;;;;;;4989798;28;20499;-84
2021/06/13 03:10:33;;;;;;;1.50;1.00;;;13.70;97.40;;;;;;5019478;28;20543;-84
2021/06/13 03:13:22;;;;;;;1.50;1.00;;;13.60;96.70;;;;;;5006551;28;20537;-82
2021/06/13 03:15:49;;;;;;;1.53;1.10;;;13.60;97.60;;;;;;5020533;28;20510;-84
2021/06/13 03:18:20;;;;;;;1.50;1.00;;;13.60;97.30;;;;;;5015497;28;20485;-84
2021/06/13 03:20:54;;;;;;;1.50;1.10;;;13.60;97.40;;;;;;5009515;28;20518;-84
2021/06/13 03:23:22;;;;;;;1.50;1.00;;;13.60;97.40;;;;;;5012351;28;20479;-85
2021/06/13 03:25:49;;;;;;;1.50;1.03;;;13.60;97.90;;;;;;5020199;28;20467;-83
2021/06/13 03:28:40;;;;;;;1.50;1.00;;;13.60;97.40;;;;;;5019777;28;20532;-83
2021/06/13 03:31:26;;;;;;;1.50;1.07;;;13.50;97.30;;;;;;5017816;28;20693;-83
2021/06/13 03:34:02;;;;;;;1.50;1.10;;;13.50;97.30;;;;;;5023465;28;20459;-83
2021/06/13 03:36:32;;;;;;;1.50;1.00;;;13.50;98.00;;;;;;5009894;28;20554;-83
2021/06/13 03:41:49;;;;;;;1.50;1.00;;;13.50;98.20;;;;;;5002146;28;20582;-84
2021/06/13 03:44:41;;;;;;;1.50;1.00;;;13.50;97.90;;;;;;5023017;28;20461;-82
2021/06/13 03:47:41;;;;;;;1.50;1.10;;;13.50;97.60;;;;;;5002741;28;20483;-83
2021/06/13 03:50:55;;;;;;;1.50;1.00;;;13.50;98.20;;;;;;4937175;29;20487;-83
2021/06/13 03:53:24;;;;;;;1.50;1.03;;;13.50;98.10;;;;;;4946644;28;20565;-84
2021/06/13 03:56:19;;;;;;;;;;;;;;;;;;;;;
2021/06/13 04:02:05;;;;;;;1.50;1.00;;;13.60;98.10;;;;;;4992494;28;20473;-83
2021/06/13 04:04:44;;;;;;;1.50;1.00;;;13.60;98.20;;;;;;5013996;28;20464;-83
2021/06/13 04:07:14;;;;;;;1.50;1.20;;;13.60;98.10;;;;;;5007506;28;20476;-84
2021/06/13 04:10:02;;;;;;;;;;;;;;;;;;;;;
2021/06/13 04:15:15;;;;;;;1.60;1.50;;;13.70;98.20;;;;;;5025141;28;20546;-83
2021/06/13 04:18:33;;;;;;;1.50;1.00;;;13.70;98.20;;;;;;5030511;28;20556;-83
2021/06/13 04:21:00;;;;;;;1.50;1.10;;;13.70;98.20;;;;;;4986633;28;20468;-81
2021/06/13 04:23:55;;;;;;;1.50;1.00;;;13.70;98.20;;;;;;5012541;28;20473;-83
2021/06/13 04:26:24;;;;;;;1.50;1.10;;;13.80;98.20;;;;;;5000727;28;20888;-82
2021/06/13 04:28:52;;;;;;;1.50;1.00;;;13.80;98.20;;;;;;5006211;28;20551;-82
2021/06/13 04:31:22;;;;;;;1.50;1.00;;;13.80;98.20;;;;;;4991375;28;20864;-85
2021/06/13 04:33:51;;;;;;;1.50;1.10;;;13.90;98.20;;;;;;5006493;28;20480;-83
2021/06/13 04:36:21;;;;;;;1.50;1.00;;;13.90;98.20;;;;;;4995715;28;20477;-84
2021/06/13 04:38:48;;;;;;;1.50;1.00;;;14.00;98.20;;;;;;5124315;22;20445;-83
2021/06/13 04:42:25;;;;;;;;;;;;;;;;;;;;;
2021/06/13 04:44:58;;;;;;;1.50;1.00;;;14.20;98.20;;;;;;4930969;29;20477;-84
2021/06/13 04:53:57;;;;;;;1.50;1.00;;;14.80;97.60;;;;;;4900262;29;20483;-86
2021/06/13 04:56:48;;;;;;;1.50;1.00;;;15.10;96.60;;;;;;4879568;29;20486;-84
2021/06/13 04:59:15;;;;;;;1.50;1.10;;;15.40;95.40;;;;;;4940799;28;20495;-86
2021/06/13 05:01:44;;;;;;;1.50;0.90;;;15.70;95.00;;;;;;4924873;29;20484;-85
2021/06/13 05:04:15;;;;;;;1.50;1.00;;;15.80;94.60;;;;;;4955843;28;20476;-82
2021/06/13 05:07:03;;;;;;;1.50;1.00;;;16.00;93.60;;;;;;4999077;28;20556;-85
2021/06/13 05:09:50;;;;;;;1.50;0.90;;;16.30;93.20;;;;;;5007007;28;20526;-85
2021/06/13 05:12:21;;;;;;;1.50;1.00;;;16.60;92.80;;;;;;4979762;28;20512;-86
2021/06/13 05:14:51;;;;;;;1.50;1.00;;;16.70;92.20;;;;;;4999386;28;20472;-86
2021/06/13 05:17:23;;;;;;;1.50;1.00;;;16.90;91.40;;;;;;4998156;28;20600;-86
2021/06/13 05:20:09;;;;;;;;;;;;;;;;;;;;;
2021/06/13 05:23:16;;;;;;;1.50;0.90;;;17.30;89.10;;;;;;4985856;28;20495;-83
2021/06/13 05:29:04;;;;;;;1.50;1.00;;;17.60;87.50;;;;;;4901902;29;21036;-85
2021/06/13 05:34:35;;;;;;;1.50;0.90;;;18.10;86.80;;;;;;4912139;28;20709;-84
2021/06/13 05:41:40;;;;;;;1.50;1.00;;;18.50;85.30;;;;;;4974066;28;20586;-86
2021/06/13 05:44:32;;;;;;;1.53;0.90;;;18.80;84.20;;;;;;4843208;29;20547;-84
2021/06/13 05:46:59;;;;;;;1.50;1.00;;;18.80;82.10;;;;;;4826868;29;20534;-83
2021/06/13 05:49:35;;;;;;;1.50;0.90;;;18.80;82.90;;;;;;4911315;29;20560;-85
2021/06/13 06:05:34;;;;;;;;;;;;;;;;;;;;;
2021/06/13 06:11:35;;;;;;;1.50;1.00;;;19.00;80.40;;;;;;5033294;23;20524;-85
2021/06/13 06:17:40;;;;;;;1.50;0.90;;;19.70;78.40;;;;;;4878636;29;20494;-84
2021/06/13 06:20:34;;;;;;;1.50;0.90;;;19.90;78.20;;;;;;4890868;29;20533;-84
2021/06/13 06:23:01;;;;;;;1.50;0.90;;;20.10;78.50;;;;;;4969977;28;20891;-83
2021/06/13 06:25:29;;;;;;;1.50;0.90;;;20.40;77.80;;;;;;5029627;28;20970;-83
2021/06/13 06:31:17;;;;;;;1.50;0.90;;;20.80;76.60;;;;;;4946144;28;21165;-83
2021/06/13 06:33:44;;;;;;;1.50;0.90;;;20.70;76.00;;;;;;5029159;28;20553;-84
2021/06/13 06:36:14;;;;;;;1.50;0.90;;;20.90;75.10;;;;;;5021124;28;20607;-84
2021/06/13 06:38:48;;;;;;;1.50;0.90;;;21.10;75.60;;;;;;5034347;28;20525;-85
2021/06/13 06:44:48;;;;;;;1.50;0.90;;;21.30;74.60;;;;;;5027741;28;20464;-85
2021/06/13 06:47:18;;;;;;;1.50;0.90;;;21.50;74.60;;;;;;5019737;28;20521;-84
2021/06/13 06:50:05;;;;;;;1.50;0.90;;;21.70;73.20;;;;;;5034917;28;20472;-84
2021/06/13 06:52:34;;;;;;;1.50;0.90;;;21.90;73.10;;;;;;5012216;28;20483;-82
2021/06/13 06:58:18;;;;;;;1.50;0.90;;;22.10;71.80;;;;;;4952374;28;20505;-84
2021/06/13 07:00:45;;;;;;;1.50;0.90;;;21.90;71.40;;;;;;4975037;28;20470;-84
2021/06/13 07:03:13;;;;;;;1.50;0.90;;;21.70;71.00;;;;;;4998692;28;20479;-83
2021/06/13 07:05:54;;;;;;;1.50;0.90;;;21.70;71.20;;;;;;5037285;28;21091;-84
2021/06/13 07:08:21;;;;;;;1.47;0.90;;;21.70;71.30;;;;;;5000367;28;20475;-83
2021/06/13 07:10:48;;;;;;;1.47;0.90;;;21.80;71.70;;;;;;5040352;28;20482;-84
2021/06/13 07:13:17;;;;;;;1.50;0.90;;;21.80;71.10;;;;;;5034863;28;20468;-86
2021/06/13 07:15:44;;;;;;;1.50;1.00;;;21.80;71.10;;;;;;5036024;28;20819;-83
2021/06/13 07:18:16;;;;;;;1.47;0.90;;;22.00;69.60;;;;;;5023161;28;20477;-84
2021/06/13 07:23:42;;;;;;;1.50;0.90;;;22.20;71.60;;;;;;5009953;28;20532;-85
2021/06/13 07:28:50;;;;;;;1.50;0.90;;;21.90;71.10;;;;;;5020800;28;20572;-83
2021/06/13 07:31:46;;;;;;;1.50;1.07;;;21.90;68.90;;;;;;5022752;28;20500;-85
2021/06/13 07:34:35;;;;;;;1.50;0.90;;;21.90;68.90;;;;;;4956136;28;20467;-80
2021/06/13 07:40:38;;;;;;;1.50;0.90;;;22.00;70.50;;;;;;4887591;29;20494;-83
2021/06/13 07:43:08;;;;;;;1.47;0.90;;;22.10;68.50;;;;;;4924363;29;20475;-83
2021/06/13 07:45:40;;;;;;;1.50;0.90;;;21.80;69.40;;;;;;4948659;29;20607;-85
2021/06/13 07:48:26;;;;;;;1.50;0.90;;;21.90;68.80;;;;;;4935095;28;20507;-84
2021/06/13 07:50:57;;;;;;;1.47;0.90;;;21.90;69.80;;;;;;5004097;28;20487;-84
2021/06/13 07:53:43;;;;;;;1.50;0.90;;;22.10;68.80;;;;;;5018721;28;20525;-83
2021/06/13 07:56:45;;;;;;;1.50;0.90;;;22.20;70.10;;;;;;5019127;28;20499;-83
2021/06/13 08:02:14;;;;;;;1.47;0.90;;;22.40;69.50;;;;;;4966480;28;20490;-83
2021/06/13 08:05:35;;;;;;;;;;;;;;;;;;;;;
2021/06/13 08:12:16;;;;;;;;;;;;;;;;;;;;;
2021/06/13 08:15:00;;;;;;;1.50;0.90;;;22.80;67.70;;;;;;5009968;28;20470;-83
2021/06/13 08:25:00;;;;;;;;;;;;;;;;;;;;;
2021/06/13 08:27:38;;;;;;;1.50;0.90;;;23.40;65.70;;;;;;5016286;28;20495;-80
2021/06/13 08:30:08;;;;;;;1.50;0.90;;;23.40;66.50;;;;;;5042378;28;20471;-84
2021/06/13 08:32:40;;;;;;;1.50;0.90;;;23.30;68.20;;;;;;5020556;28;20979;-84
2021/06/13 08:38:23;;;;;;;1.50;0.90;;;23.30;66.90;;;;;;4950200;28;20482;-84
2021/06/13 08:40:50;;;;;;;1.47;0.90;;;23.30;67.50;;;;;;5025848;28;20487;-85
2021/06/13 08:43:19;;;;;;;1.50;1.10;;;23.50;66.20;;;;;;5047825;28;20463;-81
2021/06/13 08:45:47;;;;;;;1.50;0.90;;;23.70;65.60;;;;;;5030898;28;20892;-87
2021/06/13 08:48:14;;;;;;;1.50;0.90;;;23.80;64.50;;;;;;5013687;28;20468;-83
2021/06/13 08:50:43;;;;;;;1.50;0.80;;;23.80;64.60;;;;;;5034845;28;20504;-82
2021/06/13 08:57:11;;;;;;;1.50;0.90;;;24.20;63.70;;;;;;4989022;28;20607;-83
2021/06/13 08:59:42;;;;;;;1.50;0.90;;;24.30;62.90;;;;;;5045058;28;20623;-85
2021/06/13 09:05:51;;;;;;;1.50;0.80;;;24.20;63.20;;;;;;4959736;28;21043;-81
2021/06/13 09:12:56;;;;;;;1.50;0.80;;;24.20;63.10;;;;;;4927975;29;20495;-82
2021/06/13 09:18:48;;;;;;;1.50;0.90;;;24.50;63.90;;;;;;4868907;29;20481;-83
2021/06/13 09:21:41;;;;;;;1.50;0.80;;;24.80;63.90;;;;;;4943981;28;21319;-85
2021/06/13 09:24:19;;;;;;;1.50;0.90;;;25.00;62.70;;;;;;4953778;28;20479;-84
2021/06/13 09:26:47;;;;;;;1.40;0.80;;;25.20;63.00;;;;;;5032144;28;20478;-83
2021/06/13 09:29:14;;;;;;;1.40;0.80;;;25.20;63.00;;;;;;5035067;23;20495;-82
2021/06/13 09:31:43;;;;;;;1.50;0.80;;;25.20;62.90;;;;;;5005391;28;20511;-82
2021/06/13 09:34:50;;;;;;;1.43;0.87;;;24.90;61.80;;;;;;5026883;28;20987;-84
2021/06/13 09:37:27;;;;;;;1.47;0.90;;;24.60;63.10;;;;;;5000638;28;20557;-83
2021/06/13 09:40:09;;;;;;;1.50;0.80;;;24.70;64.10;;;;;;5017154;28;20742;-82
2021/06/13 09:42:50;;;;;;;1.50;0.90;;;24.90;64.20;;;;;;5012828;28;20476;-81
2021/06/13 09:45:55;;;;;;;1.50;0.80;;;25.10;62.10;;;;;;5013479;28;21144;-83
2021/06/13 09:51:58;;;;;;;1.50;0.80;;;25.00;64.00;;;;;;4931123;28;21233;-84
2021/06/13 09:54:27;;;;;;;1.47;0.80;;;25.20;64.90;;;;;;4979062;28;20523;-83
2021/06/13 09:56:56;;;;;;;1.47;0.80;;;25.40;61.20;;;;;;5000475;28;20479;-82
2021/06/13 09:59:25;;;;;;;1.47;0.80;;;25.70;62.40;;;;;;5011611;28;20490;-81
2021/06/13 10:01:53;;;;;;;1.50;1.00;;;25.80;63.70;;;;;;5007486;28;20582;-84
2021/06/13 10:07:40;;;;;;;1.43;0.80;;;26.20;61.30;;;;;;4988440;28;20511;-83
2021/06/13 10:14:48;;;;;;;1.50;0.90;;;26.30;62.70;;;;;;4968446;28;20478;-81
2021/06/13 10:18:13;;;;;;;1.40;0.80;;;26.30;61.30;;;;;;4988563;28;20487;-81
2021/06/13 10:27:00;;;;;;;1.47;0.80;;;26.50;61.10;;;;;;4935902;28;20492;-81
2021/06/13 10:29:43;;;;;;;1.50;0.90;;;26.70;61.70;;;;;;4961247;28;20512;-81
2021/06/13 10:32:40;;;;;;;1.47;0.80;;;26.80;60.10;;;;;;4937231;28;20579;-80
2021/06/13 10:35:08;;;;;;;1.47;0.80;;;27.00;59.60;;;;;;4923847;28;20483;-80
2021/06/13 10:37:35;;;;;;;1.50;0.80;;;27.10;58.70;;;;;;4999874;28;20551;-81
2021/06/13 10:53:53;;;;;;;1.47;0.80;;;27.30;59.90;;;;;;6188601;22;248442;-80
2021/06/13 10:56:24;;;;;;;1.43;0.80;;;27.60;59.40;;;;;;6130518;23;20522;-80
2021/06/13 10:58:56;;;;;;;1.43;0.80;;;27.70;59.00;;;;;;6123171;23;20969;-81
2021/06/13 11:01:25;;;;;;;1.43;0.80;;;27.80;58.40;;;;;;6092453;23;20516;-79
2021/06/13 11:04:20;;;;;;;1.47;0.80;;;27.90;59.80;;;;;;6093273;23;20430;-81
2021/06/13 11:06:51;;;;;;;1.50;0.80;;;28.00;58.60;;;;;;6080282;23;20453;-82
2021/06/13 11:16:17;;;;;;;1.43;0.80;;;28.20;57.90;;;;;;6058722;23;20422;-80
2021/06/13 11:18:47;;;;;;;1.47;0.80;;;28.30;58.80;;;;;;6054710;23;20490;-81
2021/06/13 11:21:21;;;;;;;1.43;0.90;;;28.30;57.90;;;;;;6069645;23;20473;-81
2021/06/13 11:23:54;;;;;;;1.50;0.90;;;28.40;56.70;;;;;;6103630;23;20421;-80
2021/06/13 11:26:46;;;;;;;1.40;0.80;;;28.40;57.20;;;;;;6071946;23;20453;-82
2021/06/13 11:29:14;;;;;;;1.47;0.90;;;28.60;56.40;;;;;;6075584;23;20523;-80
2021/06/13 11:34:48;;;;;;;1.47;0.80;;;28.70;56.30;;;;;;6082375;23;20432;-82
2021/06/13 11:37:49;;;;;;;1.50;0.80;;;28.70;56.40;;;;;;6084750;23;20540;-82
2021/06/13 11:40:51;;;;;;;1.47;0.80;;;28.70;56.60;;;;;;6078146;23;20528;-82
2021/06/13 11:47:37;;;;;;;1.40;0.80;;;28.80;54.40;;;;;;5987292;23;20473;-81
2021/06/13 11:50:14;;;;;;;1.47;0.80;;;28.80;55.40;;;;;;5990110;23;20459;-83
2021/06/13 12:04:15;;;;;;;1.47;0.80;;;29.10;57.20;;;;;;6066826;23;20422;-83
2021/06/13 12:07:32;;;;;;;1.43;0.80;;;29.30;55.00;;;;;;5994864;23;20444;-83
2021/06/13 12:13:29;;;;;;;1.43;0.80;;;29.30;55.70;;;;;;6027683;23;20864;-80
2021/06/13 12:16:27;;;;;;;1.43;0.80;;;29.10;54.70;;;;;;6023771;23;20431;-81
2021/06/13 12:22:29;;;;;;;1.43;0.80;;;29.10;57.20;;;;;;5967980;23;20479;-81
2021/06/13 12:37:04;;;;;;;1.43;0.80;;;29.90;56.30;;;;;;6088521;23;20499;-83
2021/06/13 12:39:32;;;;;;;1.47;0.80;;;29.90;54.50;;;;;;6101247;23;20460;-84
2021/06/13 12:45:27;;;;;;;1.47;0.90;;;29.90;53.60;;;;;;6096917;23;20435;-82
2021/06/13 13:05:32;;;;;;;1.47;0.80;;;30.10;55.40;;;;;;5886590;24;20467;-82
2021/06/13 13:14:28;;;;;;;1.60;1.20;;;30.10;53.70;;;;;;5879204;24;20873;-82
2021/06/13 13:16:55;;;;;;;1.40;0.80;;;30.00;53.40;;;;;;6056797;23;20808;-82
2021/06/13 13:20:21;;;;;;;1.40;0.80;;;30.10;52.80;;;;;;6112144;23;21014;-83
2021/06/13 13:22:49;;;;;;;1.43;0.80;;;30.00;50.20;;;;;;6097362;23;20895;-83
2021/06/13 13:29:03;;;;;;;1.40;0.80;;;29.90;54.00;;;;;;5994309;23;20437;-82
2021/06/13 13:31:32;;;;;;;1.43;0.80;;;30.00;53.10;;;;;;5900115;23;20474;-82
2021/06/13 13:34:09;;;;;;;1.43;0.80;;;30.20;53.20;;;;;;6072160;23;20831;-82
2021/06/13 13:36:44;;;;;;;1.43;0.80;;;30.20;54.30;;;;;;6063022;23;20466;-80
2021/06/13 13:39:23;;;;;;;1.43;0.80;;;30.30;51.70;;;;;;6082848;23;20443;-82
2021/06/13 13:42:00;;;;;;;1.70;1.60;;;30.10;53.30;;;;;;6069761;23;20456;-81
2021/06/13 13:44:57;;;;;;;1.43;0.80;;;30.20;51.30;;;;;;6080825;23;20518;-82
2021/06/13 13:48:01;;;;;;;1.50;0.90;;;30.20;52.60;;;;;;6053646;23;20477;-81
2021/06/13 13:50:46;;;;;;;1.43;0.90;;;30.30;52.20;;;;;;6083537;23;20442;-81
2021/06/13 13:53:18;;;;;;;1.43;0.80;;;30.50;52.80;;;;;;6051993;23;20465;-82
2021/06/13 13:55:57;;;;;;;1.47;0.80;;;30.50;52.20;;;;;;6076541;23;20435;-82
2021/06/13 13:58:51;;;;;;;1.40;0.80;;;30.60;53.90;;;;;;6091063;23;20445;-80
2021/06/13 14:08:53;;;;;;;1.47;0.80;;;30.40;52.90;;;;;;5769136;23;20465;-80
2021/06/13 14:11:30;;;;;;;1.47;0.80;;;30.40;50.50;;;;;;5991474;23;20448;-81
2021/06/13 14:15:09;;;;;;;;;;;;;;;;;;;;;
2021/06/13 14:18:12;;;;;;;1.40;0.80;;;30.60;54.70;;;;;;5973118;23;20461;-83
2021/06/13 14:20:44;;;;;;;1.40;0.80;;;30.80;52.20;;;;;;5929684;24;20468;-81
2021/06/13 14:23:14;;;;;;;1.40;0.80;;;30.80;52.80;;;;;;6018607;23;20485;-77
2021/06/13 14:25:57;;;;;;;1.47;0.80;;;30.70;52.20;;;;;;6066577;23;20438;-82
2021/06/13 14:28:34;;;;;;;1.40;0.80;;;30.60;52.30;;;;;;6050249;23;20458;-82
2021/06/13 14:31:02;;;;;;;1.47;0.80;;;30.60;54.30;;;;;;6054919;23;20481;-83
2021/06/13 14:33:29;;;;;;;1.60;1.00;;;30.80;56.30;;;;;;6111713;23;20917;-82
2021/06/13 14:35:56;;;;;;;1.43;0.80;;;31.10;51.50;;;;;;6078607;23;20849;-81
2021/06/13 14:38:57;;;;;;;1.40;0.80;;;31.10;52.40;;;;;;6113321;23;20430;-81
2021/06/13 14:45:21;;;;;;;1.40;0.90;;;30.90;52.30;;;;;;6086910;23;20400;-82
2021/06/13 14:52:13;;;;;;;1.40;0.80;;;30.20;54.10;;;;;;6011441;23;20457;-81
2021/06/13 15:11:49;;;;;;;1.43;0.80;;;30.60;53.10;;;;;;6176476;23;20544;-81
2021/06/13 15:14:21;;;;;;;1.43;0.80;;;30.50;51.90;;;;;;6145540;23;20723;-80
2021/06/13 15:19:42;;;;;;;;;;;;;;;;;;;;;
2021/06/13 15:25:48;;;;;;;1.40;0.80;;;30.60;55.20;;;;;;5901168;24;20426;-80
2021/06/13 15:31:43;;;;;;;1.43;0.80;;;30.50;54.00;;;;;;5796721;24;20619;-81
2021/06/13 16:29:44;;;;;;;1.43;0.80;;;29.90;55.60;;;;;;5757495;24;20632;-81
2021/06/13 16:32:11;;;;;;;1.43;0.80;;;29.90;55.20;;;;;;6036966;23;20497;-82
2021/06/13 16:45:40;;;;;;;1.47;0.80;;;29.30;55.30;;;;;;6069946;23;20434;-82
2021/06/13 16:48:25;;;;;;;1.50;1.00;;;29.30;54.50;;;;;;6091993;23;20929;-82
2021/06/13 16:54:19;;;;;;;1.47;0.80;;;28.90;53.70;;;;;;6134716;23;20955;-82
2021/06/13 16:56:52;;;;;;;1.47;0.80;;;28.80;55.00;;;;;;6127914;23;20885;-83
2021/06/13 16:59:22;;;;;;;1.43;0.80;;;28.70;57.50;;;;;;6145419;23;20467;-82
2021/06/13 17:02:09;;;;;;;1.50;0.90;;;28.70;56.90;;;;;;6130071;23;20499;-81
2021/06/13 17:04:36;;;;;;;1.40;0.80;;;28.80;56.60;;;;;;6149562;23;20447;-81
2021/06/13 17:10:27;;;;;;;1.43;0.80;;;28.80;54.00;;;;;;6166102;23;20452;-81
2021/06/13 17:16:15;;;;;;;1.43;0.90;;;28.70;55.30;;;;;;6153455;23;20582;-81
2021/06/13 17:18:44;;;;;;;1.40;0.80;;;28.20;55.60;;;;;;6048689;23;20989;-81
2021/06/13 17:21:23;;;;;;;1.47;0.80;;;28.20;57.90;;;;;;6110317;23;20444;-79
2021/06/13 17:24:10;;;;;;;1.43;0.90;;;28.20;56.60;;;;;;6120202;23;20997;-81
2021/06/13 17:27:08;;;;;;;1.43;0.80;;;28.10;56.90;;;;;;6113509;23;28452;-82
2021/06/13 17:29:36;;;;;;;1.43;0.90;;;28.00;57.00;;;;;;6110547;23;20571;-81
2021/06/13 17:32:07;;;;;;;1.40;0.80;;;27.80;58.50;;;;;;6083317;23;20499;-82
2021/06/13 17:40:27;;;;;;;1.43;0.80;;;27.70;58.30;;;;;;6076632;23;21000;-83
2021/06/13 17:42:54;;;;;;;1.43;0.80;;;27.70;58.40;;;;;;6074018;23;20450;-81
2021/06/13 17:45:25;;;;;;;1.50;0.90;;;27.60;56.90;;;;;;6092531;23;20507;-81
2021/06/13 17:47:53;;;;;;;1.40;0.80;;;27.30;57.60;;;;;;6079957;23;20477;-81
2021/06/13 17:50:44;;;;;;;1.43;0.80;;;27.20;58.70;;;;;;6105114;23;20469;-83
2021/06/13 17:53:14;;;;;;;1.40;0.90;;;27.20;57.90;;;;;;6050130;23;20431;-82
2021/06/13 17:55:47;;;;;;;1.50;0.90;;;27.00;58.00;;;;;;6095322;23;20418;-81
2021/06/13 17:58:20;;;;;;;1.47;0.80;;;26.90;59.20;;;;;;6056255;23;20521;-83
2021/06/13 18:00:47;;;;;;;1.40;0.80;;;26.80;58.80;;;;;;6092554;23;20407;-82
2021/06/13 18:03:34;;;;;;;1.50;0.90;;;26.70;58.80;;;;;;6090303;23;20450;-83
2021/06/13 18:06:03;;;;;;;1.50;0.80;;;26.50;59.30;;;;;;6077260;23;20445;-81
2021/06/13 18:08:30;;;;;;;1.40;0.90;;;26.40;59.40;;;;;;6093521;23;20423;-83
2021/06/13 18:10:59;;;;;;;1.50;1.00;;;26.20;59.80;;;;;;6079013;23;20458;-83
2021/06/13 18:13:26;;;;;;;1.50;0.90;;;26.10;59.40;;;;;;6093477;23;20809;-81
2021/06/13 18:15:53;;;;;;;1.47;0.87;;;26.10;59.40;;;;;;6080442;23;20411;-82
2021/06/13 18:18:20;;;;;;;1.50;0.90;;;25.90;59.70;;;;;;6092855;23;20477;-80
2021/06/13 18:20:49;;;;;;;1.50;0.90;;;25.70;60.00;;;;;;6082460;23;20466;-83
2021/06/13 18:23:15;;;;;;;1.50;0.90;;;25.60;60.70;;;;;;6090207;23;20450;-81
2021/06/13 18:25:45;;;;;;;1.50;0.90;;;25.40;60.00;;;;;;6097023;23;20734;-82
2021/06/13 18:28:14;;;;;;;1.47;0.90;;;25.30;59.70;;;;;;6055015;23;20765;-80
2021/06/13 18:30:46;;;;;;;1.43;0.80;;;25.10;61.10;;;;;;6090018;23;20714;-81
2021/06/13 18:33:13;;;;;;;1.50;0.90;;;25.00;61.40;;;;;;6049381;23;20877;-80
2021/06/13 18:35:56;;;;;;;1.47;0.90;;;24.90;61.40;;;;;;6091798;23;20490;-80
2021/06/13 18:38:31;;;;;;;1.50;0.90;;;24.70;61.40;;;;;;6050707;23;20435;-80
2021/06/13 18:40:59;;;;;;;1.47;0.90;;;24.60;62.30;;;;;;6088296;23;20433;-81
2021/06/13 18:43:27;;;;;;;1.50;0.90;;;24.40;62.70;;;;;;6090711;23;20454;-83
2021/06/13 18:46:07;;;;;;;1.47;0.90;;;24.30;63.70;;;;;;6077056;23;20493;-83
2021/06/13 18:48:34;;;;;;;1.47;0.90;;;24.10;63.90;;;;;;6102665;23;20446;-83
2021/06/13 18:51:04;;;;;;;1.50;0.97;;;24.00;64.60;;;;;;6086882;23;20419;-83
2021/06/13 18:53:48;;;;;;;1.50;1.00;;;23.80;64.70;;;;;;6101395;23;20492;-82
2021/06/13 18:56:23;;;;;;;1.50;0.90;;;23.70;65.10;;;;;;6083196;23;20981;-81
2021/06/13 18:58:53;;;;;;;1.50;0.90;;;23.60;65.70;;;;;;6085123;23;20446;-81
2021/06/13 19:01:23;;;;;;;1.47;0.90;;;23.50;65.70;;;;;;6076577;23;20450;-81
2021/06/13 19:03:51;;;;;;;1.50;0.90;;;23.40;66.70;;;;;;6089617;23;20541;-82
2021/06/13 19:06:19;;;;;;;1.50;0.90;;;23.20;66.30;;;;;;6086550;23;20450;-82
2021/06/13 19:08:49;;;;;;;1.50;0.90;;;23.10;67.10;;;;;;6104609;23;20509;-84
2021/06/13 19:11:32;;;;;;;1.50;0.90;;;23.00;67.10;;;;;;6079603;23;20446;-83
2021/06/13 19:14:16;;;;;;;1.47;0.90;;;22.90;67.40;;;;;;6103584;23;20931;-84
2021/06/13 19:16:44;;;;;;;1.43;0.90;;;22.80;67.50;;;;;;6079602;23;20478;-81
2021/06/13 19:19:11;;;;;;;1.47;0.90;;;22.70;68.40;;;;;;6090948;23;20513;-81
2021/06/13 19:21:38;;;;;;;1.50;0.90;;;22.60;68.10;;;;;;6083666;23;20454;-82
2021/06/13 19:24:08;;;;;;;1.43;0.80;;;22.60;68.20;;;;;;6092136;23;20451;-82
2021/06/13 19:26:38;;;;;;;1.47;0.90;;;22.50;68.80;;;;;;6076862;23;20450;-80
2021/06/13 19:29:06;;;;;;;1.47;0.90;;;22.40;69.20;;;;;;6090829;23;20453;-79
2021/06/13 19:31:35;;;;;;;1.43;0.90;;;22.30;69.50;;;;;;6076174;23;20458;-80
2021/06/13 19:34:02;;;;;;;1.50;0.90;;;22.20;69.80;;;;;;6092070;23;20450;-81
2021/06/13 19:36:29;;;;;;;1.47;0.90;;;22.10;70.30;;;;;;6077165;23;20485;-82
2021/06/13 19:38:57;;;;;;;1.50;0.90;;;22.10;69.70;;;;;;6090704;23;20446;-82
2021/06/13 19:41:24;;;;;;;1.50;0.90;;;22.00;69.60;;;;;;6075706;23;20457;-82
2021/06/13 19:43:51;;;;;;;1.47;0.90;;;21.90;70.40;;;;;;6088449;23;20460;-82
2021/06/13 19:46:20;;;;;;;1.47;0.90;;;21.80;70.10;;;;;;6076139;23;20943;-80
2021/06/13 19:48:49;;;;;;;1.50;0.90;;;21.70;71.00;;;;;;6086536;23;20971;-83
2021/06/13 19:51:18;;;;;;;1.47;0.90;;;21.60;71.20;;;;;;6078457;23;21026;-82
2021/06/13 19:53:46;;;;;;;1.47;0.90;;;21.50;71.30;;;;;;6094271;23;20845;-82
2021/06/13 19:56:14;;;;;;;1.47;0.90;;;21.50;71.40;;;;;;6078999;23;20623;-82
2021/06/13 19:58:46;;;;;;;1.50;0.90;;;21.40;71.60;;;;;;6094996;23;20959;-82